createdAt,value
2023-03-07T00:00:16.449Z,6.25
2023-03-07T00:02:44.296Z,5.28
2023-03-07T00:05:12.579Z,5.80
2023-03-07T00:07:39.673Z,3.90
2023-03-07T00:10:07.226Z,3.67
2023-03-07T00:12:34.552Z,4.50
2023-03-07T00:15:01.780Z,3.10
2023-03-07T00:17:29.013Z,4.88
2023-03-07T00:19:56.231Z,5.65
2023-03-07T00:22:23.586Z,4.93
2023-03-07T00:24:50.614Z,5.93
2023-03-07T00:27:17.912Z,5.78
2023-03-07T00:29:45.207Z,5.32
2023-03-07T00:32:12.262Z,4.30
2023-03-07T00:34:39.587Z,4.47
2023-03-07T00:37:06.641Z,3.55
2023-03-07T00:42:01.039Z,5.82
2023-03-07T00:44:30.332Z,4.55
2023-03-07T00:46:57.583Z,6.15
2023-03-07T00:49:24.816Z,5.75
2023-03-07T00:51:52.359Z,4.78
2023-03-07T00:54:19.597Z,5.93
2023-03-07T00:56:46.922Z,5.35
2023-03-07T00:59:15.382Z,5.38
2023-03-07T01:01:42.982Z,4.10
2023-03-07T01:04:10.776Z,5.68
2023-03-07T01:06:38.260Z,5.63
2023-03-07T01:09:08.563Z,5.13
2023-03-07T01:11:37.460Z,5.55
2023-03-07T01:14:06.630Z,4.93
2023-03-07T01:16:38.150Z,5.97
2023-03-07T01:19:08.745Z,5.57
2023-03-07T01:21:38.589Z,5.10
2023-03-07T01:24:07.788Z,6.22
2023-03-07T01:26:35.431Z,6.20
2023-03-07T01:29:05.515Z,6.53
2023-03-07T01:31:35.674Z,5.55
2023-03-07T01:34:03.864Z,7.25
2023-03-07T01:36:35.229Z,5.78
2023-03-07T01:39:17.142Z,6.45
2023-03-07T01:41:51.543Z,5.93
2023-03-07T01:44:25.951Z,5.95
2023-03-07T01:47:00.695Z,6.10
2023-03-07T01:49:41.078Z,5.68
2023-03-07T01:52:21.216Z,5.32
2023-03-07T01:54:58.757Z,5.47
2023-03-07T01:57:33.797Z,5.47
2023-03-07T02:00:08.403Z,5.90
2023-03-07T02:02:44.175Z,6.43
2023-03-07T02:05:22.443Z,6.70
2023-03-07T02:07:51.207Z,5.82
2023-03-07T02:10:23.618Z,5.50
2023-03-07T02:12:53.568Z,6.43
2023-03-07T02:15:21.152Z,5.53
2023-03-07T02:17:48.715Z,5.38
2023-03-07T02:20:42.731Z,7.18
2023-03-07T02:23:37.111Z,5.32
2023-03-07T02:26:13.959Z,5.97
2023-03-07T02:28:42.877Z,5.90
2023-03-07T02:31:11.901Z,6.28
2023-03-07T02:33:40.553Z,5.30
2023-03-07T02:36:15.180Z,5.65
2023-03-07T02:38:51.284Z,5.85
2023-03-07T02:41:22.696Z,7.05
2023-03-07T02:43:50.672Z,5.70
2023-03-07T02:46:18.068Z,5.43
2023-03-07T02:48:45.284Z,5.32
2023-03-07T02:51:14.014Z,4.97
2023-03-07T02:53:43.092Z,4.82
2023-03-07T02:56:10.257Z,4.25
2023-03-07T02:58:37.491Z,5.28
2023-03-07T03:01:04.633Z,5.55
2023-03-07T03:03:31.680Z,3.78
2023-03-07T03:05:58.579Z,7.00
2023-03-07T03:08:25.794Z,5.25
2023-03-07T03:10:54.698Z,5.00
2023-03-07T03:13:24.312Z,5.82
2023-03-07T03:15:57.064Z,4.43
2023-03-07T03:18:27.621Z,5.38
2023-03-07T03:20:54.875Z,5.15
2023-03-07T03:23:22.425Z,5.32
2023-03-07T03:26:01.295Z,5.90
2023-03-07T03:28:32.069Z,4.30
2023-03-07T03:31:02.027Z,4.88
2023-03-07T03:33:31.067Z,3.17
2023-03-07T03:36:00.344Z,3.90
2023-03-07T03:38:27.977Z,4.45
2023-03-07T03:40:56.549Z,3.85
2023-03-07T03:43:23.536Z,3.30
2023-03-07T03:45:55.610Z,2.70
2023-03-07T03:48:24.844Z,2.15
2023-03-07T03:50:59.886Z,4.03
2023-03-07T03:53:27.115Z,5.13
2023-03-07T03:56:08.528Z,3.65
2023-03-07T03:58:36.222Z,3.65
2023-03-07T04:01:05.956Z,4.05
2023-03-07T04:03:34.426Z,4.50
2023-03-07T04:06:03.501Z,3.90
2023-03-07T04:08:32.066Z,3.10
2023-03-07T04:10:59.780Z,3.35
2023-03-07T04:13:27.340Z,2.70
2023-03-07T04:15:54.914Z,3.72
2023-03-07T04:18:23.209Z,3.60
2023-03-07T04:20:51.966Z,4.60
2023-03-07T04:23:21.933Z,3.80
2023-03-07T04:25:50.217Z,4.47
2023-03-07T04:28:19.050Z,5.43
2023-03-07T04:30:46.287Z,4.47
2023-03-07T04:33:15.583Z,4.72
2023-03-07T04:35:43.316Z,5.47
2023-03-07T04:38:11.111Z,4.28
2023-03-07T04:40:38.454Z,4.00
2023-03-07T04:43:06.450Z,4.05
2023-03-07T04:45:37.466Z,3.40
2023-03-07T04:48:05.052Z,3.25
2023-03-07T04:50:34.196Z,4.85
2023-03-07T04:53:01.441Z,4.65
2023-03-07T04:55:28.745Z,2.13
2023-03-07T04:57:57.760Z,2.45
2023-03-07T05:00:25.596Z,3.03
2023-03-07T05:02:56.777Z,3.05
2023-03-07T05:05:24.501Z,2.85
2023-03-07T05:07:51.728Z,3.70
2023-03-07T05:10:19.429Z,4.22
2023-03-07T05:12:46.919Z,4.53
2023-03-07T05:15:14.179Z,3.30
2023-03-07T05:17:41.624Z,3.10
2023-03-07T05:20:11.257Z,3.47
2023-03-07T05:22:38.294Z,2.78
2023-03-07T05:25:07.035Z,3.00
2023-03-07T05:27:35.552Z,3.90
2023-03-07T05:30:03.062Z,2.90
2023-03-07T05:32:30.783Z,3.08
2023-03-07T05:34:58.749Z,2.20
2023-03-07T05:37:26.089Z,3.83
2023-03-07T05:39:54.025Z,2.78
2023-03-07T05:42:21.331Z,3.60
2023-03-07T05:44:49.407Z,3.28
2023-03-07T05:47:16.766Z,2.80
2023-03-07T05:49:44.514Z,3.72
2023-03-07T05:52:13.607Z,2.90
2023-03-07T05:54:41.277Z,4.97
2023-03-07T05:57:09.155Z,3.83
2023-03-07T05:59:36.641Z,2.70
2023-03-07T06:02:03.979Z,2.53
2023-03-07T06:04:31.265Z,4.40
2023-03-07T06:06:59.842Z,3.55
2023-03-07T06:09:28.353Z,3.05
2023-03-07T06:11:58.112Z,4.50
2023-03-07T06:14:28.441Z,2.90
2023-03-07T06:16:55.626Z,3.47
2023-03-07T06:19:23.155Z,4.00
2023-03-07T06:21:51.932Z,3.53
2023-03-07T06:24:20.033Z,4.25
2023-03-07T06:26:47.852Z,3.92
2023-03-07T06:29:16.220Z,2.97
2023-03-07T06:31:43.562Z,3.95
2023-03-07T06:34:11.448Z,4.63
2023-03-07T06:36:40.483Z,3.75
2023-03-07T06:39:07.909Z,4.15
2023-03-07T06:41:36.093Z,3.83
2023-03-07T06:44:04.753Z,3.17
2023-03-07T06:46:33.288Z,2.88
2023-03-07T06:49:05.548Z,3.10
2023-03-07T06:51:34.180Z,3.92
2023-03-07T06:54:02.811Z,5.13
2023-03-07T06:56:31.456Z,3.20
2023-03-07T06:58:59.625Z,3.72
2023-03-07T07:01:26.764Z,4.35
2023-03-07T07:03:57.143Z,2.88
2023-03-07T07:06:25.401Z,3.58
2023-03-07T07:08:57.647Z,3.40
2023-03-07T07:11:29.098Z,3.38
2023-03-07T07:13:57.051Z,3.63
2023-03-07T07:16:24.733Z,3.22
2023-03-07T07:18:52.714Z,1.98
2023-03-07T07:21:20.529Z,3.67
2023-03-07T07:23:48.312Z,3.53
2023-03-07T07:26:15.754Z,2.95
2023-03-07T07:28:46.038Z,3.08
2023-03-07T07:31:13.855Z,3.88
2023-03-07T07:33:41.174Z,3.55
2023-03-07T07:36:09.772Z,3.13
2023-03-07T07:38:37.523Z,4.97
2023-03-07T07:41:05.217Z,3.40
2023-03-07T07:43:33.496Z,6.07
2023-03-07T07:46:10.760Z,3.58
2023-03-07T07:48:38.766Z,1.80
2023-03-07T07:51:06.724Z,4.93
2023-03-07T07:53:36.912Z,4.43
2023-03-07T07:56:04.848Z,4.80
2023-03-07T07:58:32.272Z,4.97
2023-03-07T08:01:01.453Z,4.55
2023-03-07T08:03:29.113Z,4.10
2023-03-07T08:05:56.642Z,4.47
2023-03-07T08:08:24.058Z,5.68
2023-03-07T08:10:51.142Z,5.55
2023-03-07T08:13:18.683Z,5.38
2023-03-07T08:15:46.019Z,4.75
2023-03-07T08:18:16.184Z,5.07
2023-03-07T08:20:43.577Z,5.60
2023-03-07T08:23:10.837Z,5.53
2023-03-07T08:25:38.771Z,5.35
2023-03-07T08:28:05.955Z,5.22
2023-03-07T08:30:36.334Z,5.00
2023-03-07T08:33:04.060Z,4.88
2023-03-07T08:35:31.802Z,4.78
2023-03-07T08:38:00.808Z,5.82
2023-03-07T08:40:31.625Z,4.43
2023-03-07T08:43:00.032Z,5.65
2023-03-07T08:45:27.443Z,5.45
2023-03-07T08:47:55.989Z,4.72
2023-03-07T08:50:25.987Z,6.38
2023-03-07T08:52:53.447Z,5.53
2023-03-07T08:55:23.008Z,5.03
2023-03-07T08:57:50.249Z,5.05
2023-03-07T09:00:18.115Z,5.85
2023-03-07T09:02:46.543Z,5.30
2023-03-07T09:05:13.964Z,3.97
2023-03-07T09:07:41.514Z,5.22
2023-03-07T09:10:12.008Z,5.50
2023-03-07T09:12:39.204Z,5.78
2023-03-07T09:15:07.175Z,5.22
2023-03-07T09:17:34.537Z,5.63
2023-03-07T09:20:01.936Z,5.53
2023-03-07T09:22:29.083Z,4.90
2023-03-07T09:24:56.612Z,5.60
2023-03-07T09:27:24.219Z,5.53
2023-03-07T09:29:51.630Z,5.20
2023-03-07T09:32:19.053Z,5.07
2023-03-07T09:34:46.420Z,5.00
2023-03-07T09:37:14.144Z,4.82
2023-03-07T09:39:41.421Z,5.18
2023-03-07T09:42:19.310Z,5.07
2023-03-07T09:45:15.462Z,5.38
2023-03-07T09:48:28.385Z,5.35
2023-03-07T09:51:25.487Z,5.28
2023-03-07T09:54:01.160Z,5.28
2023-03-07T09:56:36.226Z,5.57
2023-03-07T09:59:22.797Z,5.10
2023-03-07T10:02:06.661Z,5.78
2023-03-07T10:04:55.254Z,4.97
2023-03-07T10:07:27.138Z,5.07
2023-03-07T10:10:00.671Z,5.43
2023-03-07T10:12:43.115Z,5.60
2023-03-07T10:15:14.902Z,5.38
2023-03-07T10:18:06.152Z,5.65
2023-03-07T10:20:41.158Z,4.95
2023-03-07T10:23:29.403Z,5.35
2023-03-07T10:26:13.113Z,5.10
2023-03-07T10:28:43.221Z,5.15
2023-03-07T10:31:29.070Z,5.32
2023-03-07T10:33:56.791Z,5.82
2023-03-07T10:36:44.199Z,5.65
2023-03-07T10:39:45.410Z,4.95
2023-03-07T10:42:15.394Z,5.13
2023-03-07T10:44:45.726Z,5.60
2023-03-07T10:47:28.138Z,4.95
2023-03-07T10:50:03.143Z,6.15
2023-03-07T10:52:42.053Z,4.90
2023-03-07T10:55:32.960Z,5.32
2023-03-07T10:58:24.789Z,5.53
2023-03-07T11:01:02.591Z,5.22
2023-03-07T11:03:51.493Z,5.20
2023-03-07T11:06:51.282Z,4.88
2023-03-07T11:09:24.671Z,5.90
2023-03-07T11:12:00.827Z,4.45
2023-03-07T11:14:29.400Z,3.92
2023-03-07T11:17:02.614Z,4.75
2023-03-07T11:19:45.092Z,4.47
2023-03-07T11:22:27.252Z,4.88
2023-03-07T11:24:57.445Z,4.68
2023-03-07T11:27:38.028Z,4.15
2023-03-07T11:30:28.414Z,5.32
2023-03-07T11:33:25.420Z,4.38
2023-03-07T11:36:15.828Z,4.95
2023-03-07T11:39:15.389Z,4.80
2023-03-07T11:41:48.092Z,4.30
2023-03-07T11:44:33.620Z,4.78
2023-03-07T11:47:06.073Z,5.13
2023-03-07T11:49:36.006Z,5.18
2023-03-07T11:52:38.953Z,4.70
2023-03-07T11:55:36.139Z,4.60
2023-03-07T11:58:12.319Z,4.15
2023-03-07T12:01:04.517Z,4.00
2023-03-07T12:03:46.905Z,3.73
2023-03-07T12:06:29.366Z,4.15
2023-03-07T12:09:18.682Z,4.60
2023-03-07T12:12:17.557Z,3.80
2023-03-07T12:15:00.383Z,3.80
2023-03-07T12:17:54.258Z,3.97
2023-03-07T12:20:31.338Z,4.47
2023-03-07T12:23:08.513Z,4.00
2023-03-07T12:25:39.344Z,4.18
2023-03-07T12:28:17.118Z,4.18
2023-03-07T12:31:15.484Z,4.50
2023-03-07T12:34:04.666Z,4.75
2023-03-07T12:36:34.760Z,4.38
2023-03-07T12:39:12.854Z,4.35
2023-03-07T12:41:43.048Z,3.45
2023-03-07T12:44:36.583Z,3.92
2023-03-07T12:47:30.958Z,3.70
2023-03-07T12:50:29.187Z,3.70
2023-03-07T12:53:05.110Z,4.10
2023-03-07T12:55:54.895Z,3.63
2023-03-07T12:58:42.729Z,3.55
2023-03-07T13:01:35.305Z,4.00
2023-03-07T13:04:23.371Z,3.95
2023-03-07T13:06:52.233Z,3.60
2023-03-07T13:09:25.598Z,3.95
2023-03-07T13:12:20.322Z,3.95
2023-03-07T13:15:19.776Z,3.75
2023-03-07T13:17:47.016Z,4.00
2023-03-07T13:20:20.631Z,3.53
2023-03-07T13:22:48.336Z,4.18
2023-03-07T13:25:37.236Z,4.57
2023-03-07T13:28:26.902Z,3.28
2023-03-07T13:31:15.407Z,4.38
2023-03-07T13:33:43.265Z,4.15
2023-03-07T13:36:39.100Z,4.43
2023-03-07T13:39:57.487Z,4.03
2023-03-07T13:42:47.613Z,3.47
2023-03-07T13:45:37.762Z,3.65
2023-03-07T13:48:11.757Z,3.65
2023-03-07T13:50:50.993Z,4.95
2023-03-07T13:53:30.434Z,4.43
2023-03-07T13:56:02.990Z,4.50
2023-03-07T13:59:03.446Z,4.43
2023-03-07T14:01:40.860Z,4.50
2023-03-07T14:04:40.721Z,4.13
2023-03-07T14:07:25.378Z,4.70
2023-03-07T14:09:56.560Z,5.32
2023-03-07T14:12:58.370Z,5.32
2023-03-07T14:15:43.923Z,4.45
2023-03-07T14:18:26.405Z,9.55
2023-03-07T14:21:18.865Z,12.57
2023-03-07T14:24:28.046Z,9.43
2023-03-07T14:27:03.177Z,8.27
2023-03-07T14:29:31.311Z,10.63
2023-03-07T14:32:01.168Z,8.07
2023-03-07T14:34:36.374Z,6.25
2023-03-07T14:37:12.487Z,5.70
2023-03-07T14:40:17.168Z,6.80
2023-03-07T14:43:22.479Z,5.78
2023-03-07T14:46:05.826Z,7.35
2023-03-07T14:48:54.824Z,12.85
2023-03-07T14:51:26.345Z,12.55
2023-03-07T14:53:55.727Z,5.45
2023-03-07T14:56:24.438Z,7.50
2023-03-07T14:58:54.674Z,7.53
2023-03-07T15:01:22.677Z,5.93
2023-03-07T15:03:52.383Z,5.53
2023-03-07T15:06:25.427Z,5.45
2023-03-07T15:08:56.511Z,4.95
2023-03-07T15:11:33.808Z,5.32
2023-03-07T15:14:11.805Z,5.53
2023-03-07T15:16:50.759Z,5.32
2023-03-07T15:19:30.514Z,5.30
2023-03-07T15:22:04.540Z,5.38
2023-03-07T15:24:36.341Z,6.22
2023-03-07T15:27:06.262Z,5.32
2023-03-07T15:29:34.500Z,6.15
2023-03-07T15:32:07.512Z,5.55
2023-03-07T15:37:22.732Z,4.15
2023-03-07T15:40:01.685Z,4.53
2023-03-07T15:42:30.642Z,4.95
2023-03-07T15:45:00.293Z,5.85
2023-03-07T15:47:30.550Z,5.10
2023-03-07T15:50:01.775Z,5.00
2023-03-07T15:52:33.292Z,5.40
2023-03-07T15:55:06.220Z,4.20
2023-03-07T15:57:51.005Z,4.97
2023-03-07T16:00:26.351Z,4.95
2023-03-07T16:02:54.211Z,5.45
2023-03-07T16:05:25.166Z,5.80
2023-03-07T16:07:55.958Z,4.53
2023-03-07T16:10:28.170Z,4.57
2023-03-07T16:12:56.242Z,5.07
2023-03-07T16:15:24.894Z,5.90
2023-03-07T16:17:56.451Z,5.90
2023-03-07T16:20:29.097Z,6.10
2023-03-07T16:22:57.092Z,5.88
2023-03-07T16:25:27.964Z,9.05
2023-03-07T16:27:57.410Z,5.35
2023-03-07T16:30:30.392Z,5.60
2023-03-07T16:32:57.479Z,4.97
2023-03-07T16:35:27.849Z,4.80
2023-03-07T16:37:55.836Z,5.70
2023-03-07T16:40:26.244Z,4.60
2023-03-07T16:42:53.644Z,4.00
2023-03-07T16:45:32.035Z,4.63
2023-03-07T16:48:02.576Z,4.55
2023-03-07T16:50:33.645Z,4.97
2023-03-07T16:53:01.035Z,4.80
2023-03-07T16:55:28.735Z,6.03
2023-03-07T16:58:00.945Z,5.45
2023-03-07T17:00:28.930Z,5.65
2023-03-07T17:03:02.281Z,4.93
2023-03-07T17:05:30.666Z,5.32
2023-03-07T17:07:59.450Z,5.25
2023-03-07T17:10:27.130Z,5.47
2023-03-07T17:12:59.467Z,5.20
2023-03-07T17:15:31.057Z,5.20
2023-03-07T17:17:59.654Z,5.73
2023-03-07T17:20:28.024Z,5.53
2023-03-07T17:22:55.559Z,5.50
2023-03-07T17:25:23.875Z,4.35
2023-03-07T17:28:15.907Z,5.47
2023-03-07T17:30:45.880Z,6.03
2023-03-07T17:33:15.112Z,6.20
2023-03-07T17:35:42.714Z,7.70
2023-03-07T17:38:10.242Z,7.55
2023-03-07T17:40:38.801Z,6.65
2023-03-07T17:43:08.390Z,5.63
2023-03-07T17:45:36.053Z,7.35
2023-03-07T17:48:03.588Z,5.05
2023-03-07T17:50:30.837Z,4.90
2023-03-07T17:52:58.718Z,4.68
2023-03-07T17:55:26.300Z,5.03
2023-03-07T17:57:53.942Z,5.80
2023-03-07T18:00:22.061Z,5.22
2023-03-07T18:02:49.832Z,4.93
2023-03-07T18:05:19.562Z,6.10
2023-03-07T18:07:47.521Z,5.65
2023-03-07T18:10:14.646Z,6.18
2023-03-07T18:12:42.726Z,4.75
2023-03-07T18:15:14.815Z,5.45
2023-03-07T18:17:48.355Z,4.93
2023-03-07T18:20:19.532Z,5.03
2023-03-07T18:22:46.981Z,5.50
2023-03-07T18:25:16.216Z,5.35
2023-03-07T18:27:43.996Z,5.13
2023-03-07T18:30:12.653Z,6.22
2023-03-07T18:32:39.917Z,8.73
2023-03-07T18:35:08.049Z,7.55
2023-03-07T18:37:36.864Z,7.28
2023-03-07T18:40:06.572Z,6.75
2023-03-07T18:42:39.512Z,7.75
2023-03-07T18:45:07.962Z,8.27
2023-03-07T18:47:35.172Z,8.30
2023-03-07T18:50:02.474Z,10.38
2023-03-07T18:52:30.311Z,10.52
2023-03-07T18:54:57.711Z,7.88
2023-03-07T18:57:25.122Z,8.75
2023-03-07T18:59:52.668Z,9.20
2023-03-07T19:02:20.119Z,8.45
2023-03-07T19:04:47.492Z,6.60
2023-03-07T19:07:15.163Z,5.95
2023-03-07T19:09:48.429Z,6.43
2023-03-07T19:12:15.768Z,6.75
2023-03-07T19:14:43.057Z,6.05
2023-03-07T19:17:10.846Z,7.80
2023-03-07T19:19:38.248Z,6.20
2023-03-07T19:22:06.049Z,6.20
2023-03-07T19:24:33.494Z,5.28
2023-03-07T19:27:01.188Z,5.90
2023-03-07T19:29:28.702Z,5.90
2023-03-07T19:31:56.972Z,5.50
2023-03-07T19:34:24.035Z,5.78
2023-03-07T19:36:52.138Z,6.10
2023-03-07T19:39:20.725Z,5.30
2023-03-07T19:41:48.425Z,4.95
2023-03-07T19:44:16.847Z,5.93
2023-03-07T19:46:46.783Z,7.15
2023-03-07T19:49:16.109Z,5.80
2023-03-07T19:51:46.008Z,6.32
2023-03-07T19:54:14.602Z,6.40
2023-03-07T19:56:44.679Z,5.75
2023-03-07T19:59:12.908Z,5.63
2023-03-07T20:01:40.829Z,6.10
2023-03-07T20:04:10.650Z,5.35
2023-03-07T20:06:39.550Z,5.93
2023-03-07T20:09:07.201Z,6.47
2023-03-07T20:11:39.747Z,5.57
2023-03-07T20:14:07.626Z,6.15
2023-03-07T20:16:35.057Z,5.97
2023-03-07T20:19:05.541Z,5.53
2023-03-07T20:21:33.843Z,5.13
2023-03-07T20:24:01.840Z,6.40
2023-03-07T20:26:35.164Z,5.57
2023-03-07T20:29:04.318Z,4.90
2023-03-07T20:31:32.818Z,6.60
2023-03-07T20:34:01.839Z,5.20
2023-03-07T20:36:33.053Z,6.10
2023-03-07T20:39:02.441Z,6.82
2023-03-07T20:41:32.414Z,5.43
2023-03-07T20:44:02.683Z,6.93
2023-03-07T20:46:31.372Z,6.97
2023-03-07T20:49:00.955Z,6.82
2023-03-07T20:51:31.414Z,8.13
2023-03-07T20:54:00.325Z,7.57
2023-03-07T20:56:29.788Z,6.50
2023-03-07T20:58:58.038Z,7.18
2023-03-07T21:01:30.700Z,6.95
2023-03-07T21:04:15.410Z,7.90
2023-03-07T21:06:44.440Z,6.35
2023-03-07T21:09:15.632Z,7.20
2023-03-07T21:11:45.496Z,7.90
2023-03-07T21:14:17.528Z,8.02
2023-03-07T21:16:48.445Z,7.28
2023-03-07T21:19:16.265Z,6.93
2023-03-07T21:21:43.873Z,6.35
2023-03-07T21:24:12.948Z,7.65
2023-03-07T21:26:40.580Z,6.85
2023-03-07T21:29:09.822Z,6.60
2023-03-07T21:31:37.616Z,7.80
2023-03-07T21:34:08.193Z,6.57
2023-03-07T21:36:35.688Z,5.80
2023-03-07T21:39:08.269Z,5.40
2023-03-07T21:41:36.779Z,6.80
2023-03-07T21:44:03.928Z,6.93
2023-03-07T21:46:31.496Z,4.78
2023-03-07T21:48:59.959Z,4.72
2023-03-07T21:51:27.460Z,5.22
2023-03-07T21:53:54.754Z,6.38
2023-03-07T21:56:24.053Z,6.15
2023-03-07T21:58:52.167Z,4.70
2023-03-07T22:01:26.327Z,6.47
2023-03-07T22:03:55.929Z,6.03
2023-03-07T22:06:23.787Z,6.80
2023-03-07T22:08:50.938Z,4.93
2023-03-07T22:11:17.966Z,5.22
2023-03-07T22:13:45.790Z,4.00
2023-03-07T22:16:18.245Z,3.08
2023-03-07T22:18:45.729Z,3.45
2023-03-07T22:21:15.261Z,5.00
2023-03-07T22:23:43.092Z,5.00
2023-03-07T22:26:12.472Z,4.35
2023-03-07T22:28:43.365Z,6.43
2023-03-07T22:31:12.888Z,4.28
2023-03-07T22:33:41.692Z,6.47
2023-03-07T22:36:13.002Z,6.45
2023-03-07T22:38:41.938Z,4.53
2023-03-07T22:41:15.710Z,4.45
2023-03-07T22:43:43.455Z,4.18
2023-03-07T22:46:11.433Z,7.03
2023-03-07T22:48:39.388Z,5.18
2023-03-07T22:51:17.859Z,5.82
2023-03-07T22:53:45.684Z,4.15
2023-03-07T22:56:16.570Z,6.20
2023-03-07T22:58:44.083Z,6.72
2023-03-07T23:01:14.795Z,7.05
2023-03-07T23:03:42.640Z,6.50
2023-03-07T23:06:10.173Z,6.78
2023-03-07T23:08:37.345Z,5.68
2023-03-07T23:11:09.238Z,5.25
2023-03-07T23:13:37.025Z,4.45
2023-03-07T23:16:10.270Z,4.30
2023-03-07T23:18:38.357Z,5.40
2023-03-07T23:21:07.410Z,4.75
2023-03-07T23:23:35.010Z,4.55
2023-03-07T23:26:02.592Z,5.53
2023-03-07T23:28:30.148Z,5.93
2023-03-07T23:30:57.640Z,7.25
2023-03-07T23:33:25.244Z,6.68
2023-03-07T23:35:52.747Z,4.15
2023-03-07T23:38:20.977Z,2.38
2023-03-07T23:40:48.401Z,4.55
2023-03-07T23:43:15.679Z,7.88
2023-03-07T23:45:42.924Z,5.60
2023-03-07T23:48:13.765Z,5.53
2023-03-07T23:50:41.212Z,7.15
2023-03-07T23:53:08.550Z,8.98
2023-03-07T23:55:36.116Z,8.63
2023-03-07T23:58:05.429Z,7.28
